Time;durP1;ratioP1;P1;durP2;ratioP2;P2;SDS_P1;SDS_P2;PMS_P1;PMS_P2;Temp;Humidity;BMP_temperature;BMP_pressure;BME280_temperature;BME280_humidity;BME280_pressure;Samples;Min_cycle;Max_cycle;Signal;HPM_P1;HPM_P2
2022/01/28 00:04:14;;;;;;;9.55;1.90;;;;;;;4.31;97.05;99592.10;3528518;82;98093;-89
2022/01/28 00:09:15;;;;;;;9.75;1.62;;;;;;;4.34;97.09;99594.12;3516554;82;98164;-88
2022/01/28 00:20:19;;;;;;;10.93;1.90;;;;;;;4.22;96.66;99565.66;3446487;84;98614;-89
2022/01/28 00:40:18;;;;;;;10.70;1.72;;;;;;;4.35;96.58;99594.90;3527737;82;98366;-89
2022/01/28 00:45:19;;;;;;;11.63;2.10;;;;;;;4.33;96.78;99592.55;3519202;82;98790;-88
2022/01/28 00:50:20;;;;;;;15.07;2.47;;;;;;;4.29;97.30;99610.74;3522337;82;98909;-86
2022/01/28 00:55:22;;;;;;;13.87;2.37;;;;;;;4.26;97.64;99605.22;3440434;84;98587;-88
2022/01/28 01:00:24;;;;;;;13.33;2.10;;;;;;;4.20;98.67;99620.26;3506175;82;98471;-94
2022/01/28 01:05:26;;;;;;;11.35;2.08;;;;;;;4.16;99.45;99638.44;3530302;82;33716;-89
2022/01/28 01:10:28;;;;;;;10.30;2.03;;;;;;;4.11;100.00;99635.98;3454410;83;98309;-90
2022/01/28 01:15:34;;;;;;;10.70;1.50;;;;;;;4.06;100.00;99634.33;3456084;84;98606;-87
2022/01/28 01:25:43;;;;;;;14.30;1.60;;;;;;;3.99;100.00;99638.22;3522352;81;99063;-88
2022/01/28 01:30:43;;;;;;;10.30;2.85;;;;;;;3.94;100.00;99632.27;3521093;81;98732;-89
2022/01/28 01:35:41;;;;;;;9.38;1.62;;;;;;;3.87;100.00;99643.76;3513245;82;98682;-88
2022/01/28 01:40:47;;;;;;;9.45;2.08;;;;;;;3.83;100.00;99661.92;3517799;81;98664;-89
2022/01/28 01:56:13;;;;;;;5.50;1.47;;;;;;;3.71;100.00;99655.20;3515989;82;98953;-87
2022/01/28 02:01:14;;;;;;;9.00;1.60;;;;;;;3.68;100.00;99668.72;3507717;82;98474;-88
2022/01/28 02:06:21;;;;;;;9.67;2.10;;;;;;;3.66;100.00;99677.23;3508527;83;98500;-90
2022/01/28 02:11:22;;;;;;;4.95;1.10;;;;;;;3.64;100.00;99678.72;3510788;82;98538;-91
2022/01/28 02:16:24;;;;;;;6.90;1.87;;;;;;;3.62;100.00;99693.25;3483781;83;98408;-88
2022/01/28 02:21:25;;;;;;;10.70;1.30;;;;;;;3.61;100.00;99686.23;3460346;83;98283;-89
2022/01/28 02:26:28;;;;;;;8.23;1.13;;;;;;;3.59;100.00;99688.49;3458792;84;98678;-92
2022/01/28 02:31:29;;;;;;;2.58;1.00;;;;;;;3.56;100.00;99700.86;3473201;83;98675;-85
2022/01/28 02:36:30;;;;;;;6.37;1.37;;;;;;;3.54;100.00;99703.14;3502998;83;98514;-88
2022/01/28 02:41:36;;;;;;;3.97;1.13;;;;;;;3.54;100.00;99702.34;3502777;83;98315;-87
2022/01/28 02:46:37;;;;;;;7.25;1.90;;;;;;;3.54;100.00;99699.62;3504322;83;98146;-92
2022/01/28 02:51:37;;;;;;;13.25;2.05;;;;;;;3.55;100.00;99716.19;3496481;83;98319;-86
2022/01/28 02:56:46;;;;;;;13.37;2.07;;;;;;;3.55;100.00;99709.39;3505728;83;98729;-89
2022/01/28 03:01:41;;;;;;;12.43;2.10;;;;;;;3.51;100.00;99705.22;3486632;83;98728;-89
2022/01/28 03:06:42;;;;;;;10.40;2.30;;;;;;;3.53;100.00;99705.66;3542531;82;98606;-87
2022/01/28 03:11:46;;;;;;;12.43;2.70;;;;;;;3.53;100.00;99702.93;3470803;83;98728;-88
2022/01/28 03:17:10;;;;;;;11.03;2.37;;;;;;;3.54;100.00;99719.47;3509528;83;33729;-87
2022/01/28 03:22:05;;;;;;;19.10;3.27;;;;;;;3.59;100.00;99717.86;3473648;83;98905;-87
2022/01/28 03:27:12;;;;;;;13.13;2.73;;;;;;;3.65;100.00;99723.27;3538797;82;98812;-86
2022/01/28 03:32:09;;;;;;;15.00;2.67;;;;;;;3.70;100.00;99734.45;3542499;82;98640;-87
2022/01/28 03:37:12;;;;;;;18.13;3.10;;;;;;;3.72;100.00;99742.50;3473339;83;98774;-89
2022/01/28 03:42:13;;;;;;;19.27;3.40;;;;;;;3.77;100.00;99732.72;3470114;83;98718;-85
2022/01/28 03:47:14;;;;;;;16.37;3.50;;;;;;;3.82;100.00;99748.80;3475366;83;32803;-85
2022/01/28 03:52:15;;;;;;;17.63;3.30;;;;;;;3.87;100.00;99751.86;3472978;82;98581;-86
2022/01/28 03:57:16;;;;;;;12.63;2.97;;;;;;;3.88;100.00;99747.41;3534922;81;98370;-86
2022/01/28 04:02:24;;;;;;;17.43;2.87;;;;;;;3.95;100.00;99750.89;3510060;82;98748;-86
2022/01/28 04:12:44;;;;;;;18.32;3.30;;;;;;;4.01;100.00;99764.47;3468904;83;98761;-85
2022/01/28 04:17:46;;;;;;;13.93;3.07;;;;;;;4.03;100.00;99761.61;3475887;83;98675;-90
2022/01/28 04:22:47;;;;;;;15.80;2.92;;;;;;;4.08;100.00;99774.17;3471580;83;98131;-86
2022/01/28 04:27:48;;;;;;;17.97;3.10;;;;;;;4.10;100.00;99797.19;3467102;83;98578;-86
2022/01/28 04:32:51;;;;;;;11.97;2.23;;;;;;;4.12;100.00;99793.56;3468745;83;98599;-88
2022/01/28 04:38:16;;;;;;;27.58;3.37;;;;;;;4.14;100.00;99797.30;3480490;83;98649;-87
2022/01/28 04:43:04;;;;;;;15.50;2.80;;;;;;;4.14;100.00;99816.36;3470865;83;99089;-87
2022/01/28 04:53:20;;;;;;;20.48;2.95;;;;;;;4.14;100.00;99841.64;3449948;84;98616;-86
2022/01/28 04:58:38;;;;;;;16.70;3.70;;;;;;;4.11;100.00;99838.83;3513772;82;98582;-86
2022/01/28 05:29:39;;;;;;;18.47;3.23;;;;;;;3.88;100.00;99933.08;3505840;82;99179;-87
2022/01/28 05:34:42;;;;;;;14.30;2.80;;;;;;;3.86;100.00;99932.05;3444642;84;32116;-90
2022/01/28 05:39:43;;;;;;;16.85;2.92;;;;;;;3.84;100.00;99949.31;3462929;82;100781;-87
2022/01/28 05:44:44;;;;;;;17.70;3.20;;;;;;;3.84;100.00;99953.95;3475277;83;98935;-87
2022/01/28 05:49:45;;;;;;;16.87;2.93;;;;;;;3.84;100.00;99967.55;3481465;83;98747;-86
2022/01/28 05:54:46;;;;;;;15.17;3.50;;;;;;;3.84;100.00;99977.08;3474190;83;98642;-86
2022/01/28 05:59:47;;;;;;;15.20;2.25;;;;;;;3.83;100.00;99980.36;3445673;84;98790;-87
2022/01/28 06:04:47;;;;;;;18.03;3.87;;;;;;;3.86;100.00;99991.13;3524539;82;31410;-87
2022/01/28 06:09:48;;;;;;;15.05;3.25;;;;;;;3.87;100.00;100022.69;3518785;82;98612;-87
2022/01/28 06:14:49;;;;;;;13.33;2.77;;;;;;;3.88;100.00;100020.18;3525000;82;98894;-87
2022/01/28 06:19:50;;;;;;;20.60;3.13;;;;;;;3.87;100.00;100035.70;3522414;82;98902;-92
2022/01/28 06:24:51;;;;;;;13.97;3.23;;;;;;;3.88;100.00;100046.04;3520985;82;98982;-89
2022/01/28 06:29:52;;;;;;;21.07;2.93;;;;;;;3.87;100.00;100062.15;3518623;82;98978;-85
2022/01/28 06:34:53;;;;;;;19.13;3.50;;;;;;;3.86;100.00;100073.59;3526306;82;34582;-87
2022/01/28 06:39:54;;;;;;;24.40;4.37;;;;;;;3.86;100.00;100078.23;3519399;82;98940;-88
2022/01/28 06:44:54;;;;;;;15.23;3.43;;;;;;;3.86;100.00;100106.81;3527211;81;98975;-87
2022/01/28 06:49:55;;;;;;;25.57;6.63;;;;;;;3.87;100.00;100113.28;3519496;81;99433;-86
2022/01/28 06:54:56;;;;;;;25.80;8.70;;;;;;;3.87;100.00;100124.76;3469854;84;98858;-86
2022/01/28 06:59:57;;;;;;;16.97;4.33;;;;;;;3.87;100.00;100126.89;3517017;82;98824;-88
2022/01/28 07:04:59;;;;;;;21.07;4.62;;;;;;;3.87;100.00;100135.65;3524492;82;34931;-85
2022/01/28 07:10:00;;;;;;;17.60;3.65;;;;;;;3.87;100.00;100149.26;3511270;82;98750;-88
2022/01/28 07:15:01;;;;;;;16.87;3.60;;;;;;;3.87;100.00;100172.39;3518218;82;98845;-86
2022/01/28 07:20:02;;;;;;;17.67;5.13;;;;;;;3.87;100.00;100171.03;3516419;82;98862;-86
2022/01/28 07:25:04;;;;;;;21.70;6.00;;;;;;;3.89;100.00;100189.17;3522879;82;98910;-88
2022/01/28 07:30:07;;;;;;;14.23;3.00;;;;;;;3.92;100.00;100185.20;3515372;82;98887;-87
2022/01/28 07:35:09;;;;;;;16.40;2.95;;;;;;;3.94;100.00;100206.06;3523096;82;33952;-85
2022/01/28 07:40:11;;;;;;;16.10;3.47;;;;;;;3.95;100.00;100215.05;3512793;82;98768;-85
2022/01/28 07:45:14;;;;;;;17.67;3.70;;;;;;;3.97;100.00;100229.91;3463234;83;98675;-86
2022/01/28 07:50:15;;;;;;;23.35;7.58;;;;;;;4.00;100.00;100238.78;3455042;82;98871;-87
2022/01/28 07:55:16;;;;;;;15.27;4.40;;;;;;;4.00;100.00;100256.47;3474704;83;98781;-87
2022/01/28 08:00:17;;;;;;;24.70;5.20;;;;;;;4.02;100.00;100272.45;3451648;83;98995;-91
2022/01/28 08:05:19;;;;;;;17.57;4.27;;;;;;;4.02;100.00;100292.88;3546948;81;33095;-88
2022/01/28 08:10:20;;;;;;;10.17;2.47;;;;;;;4.03;100.00;100310.80;3471166;83;99252;-87
2022/01/28 08:15:22;;;;;;;13.72;3.00;;;;;;;4.03;100.00;100317.59;3471664;83;98675;-88
2022/01/28 08:20:24;;;;;;;18.30;3.97;;;;;;;4.02;100.00;100329.63;3473599;83;98893;-86
2022/01/28 08:25:27;;;;;;;17.33;2.93;;;;;;;4.00;100.00;100350.96;3477524;83;98927;-85
2022/01/28 08:30:32;;;;;;;21.93;4.00;;;;;;;4.00;100.00;100358.58;3468238;83;98901;-89
2022/01/28 08:35:36;;;;;;;18.35;3.77;;;;;;;3.99;100.00;100371.94;3489826;83;35233;-86
2022/01/28 08:40:35;;;;;;;16.10;5.15;;;;;;;4.00;100.00;100391.25;3496827;83;98725;-88
2022/01/28 08:45:36;;;;;;;15.70;3.83;;;;;;;4.03;100.00;100400.65;3505176;83;98687;-87
2022/01/28 08:50:37;;;;;;;21.27;5.33;;;;;;;4.07;100.00;100413.28;3492128;83;98904;-87
2022/01/28 08:55:39;;;;;;;16.87;3.40;;;;;;;4.10;100.00;100423.49;3504325;83;98901;-87
2022/01/28 09:00:42;;;;;;;13.70;3.20;;;;;;;4.15;100.00;100434.19;3498975;83;98904;-88
2022/01/28 09:05:43;;;;;;;18.48;4.62;;;;;;;4.21;100.00;100451.91;3507933;83;98895;-85
2022/01/28 09:10:56;;;;;;;19.67;4.80;;;;;;;4.34;100.00;100460.38;3472255;83;98741;-88
2022/01/28 09:15:48;;;;;;;18.40;4.37;;;;;;;4.44;100.00;100466.78;3530604;82;98636;-87
2022/01/28 09:20:49;;;;;;;17.30;3.80;;;;;;;4.50;100.00;100480.98;3491169;83;99168;-86
2022/01/28 09:25:50;;;;;;;18.17;5.33;;;;;;;4.56;100.00;100502.81;3503503;83;98933;-87
2022/01/28 09:30:52;;;;;;;28.50;6.90;;;;;;;4.59;100.00;100515.19;3534824;82;98924;-86
2022/01/28 09:35:54;;;;;;;34.03;9.73;;;;;;;4.64;100.00;100524.53;3500551;83;98910;-86
2022/01/28 09:40:56;;;;;;;10.85;3.40;;;;;;;4.74;100.00;100541.84;3478653;83;98926;-86
2022/01/28 09:45:57;;;;;;;14.65;4.33;;;;;;;4.83;100.00;100539.84;3478513;83;98704;-87
2022/01/28 09:51:00;;;;;;;23.63;5.93;;;;;;;4.91;100.00;100549.84;3479807;83;99026;-86
2022/01/28 09:56:01;;;;;;;15.28;3.92;;;;;;;5.00;100.00;100553.84;3481779;83;98938;-87
2022/01/28 10:01:03;;;;;;;19.40;6.33;;;;;;;5.07;100.00;100563.66;3477188;83;98870;-86
2022/01/28 10:06:04;;;;;;;17.93;4.97;;;;;;;5.12;100.00;100575.73;3452292;84;99396;-86
2022/01/28 10:11:16;;;;;;;15.93;4.17;;;;;;;5.14;100.00;100581.62;3533471;81;98491;-87
2022/01/28 10:16:29;;;;;;;11.45;4.42;;;;;;;5.13;100.00;100593.09;3526441;81;98719;-87
2022/01/28 10:21:40;;;;;;;16.10;4.12;;;;;;;5.16;100.00;100592.98;3517690;81;98740;-87
2022/01/28 10:26:50;;;;;;;14.80;3.83;;;;;;;5.24;100.00;100611.22;3458959;84;99001;-86
2022/01/28 10:32:12;;;;;;;12.10;3.10;;;;;;;5.28;100.00;100627.13;3515066;82;98934;-87
2022/01/28 10:37:30;;;;;;;16.37;3.15;;;;;;;5.27;100.00;100633.17;3512947;83;98951;-87
2022/01/28 10:42:50;;;;;;;11.43;2.98;;;;;;;5.29;100.00;100636.34;3510932;82;98960;-87
2022/01/28 10:47:53;;;;;;;10.63;2.27;;;;;;;5.39;100.00;100648.77;3505947;82;98992;-88
2022/01/28 10:53:21;;;;;;;11.30;3.00;;;;;;;5.48;100.00;100648.92;3514460;82;98590;-87
2022/01/28 10:58:26;;;;;;;12.10;2.37;;;;;;;5.51;99.93;100673.39;3509072;82;98959;-89
2022/01/28 11:03:28;;;;;;;12.95;3.20;;;;;;;5.54;99.65;100685.79;3514976;82;98660;-86
2022/01/28 11:08:31;;;;;;;12.25;3.60;;;;;;;5.56;100.00;100684.87;3504332;82;98800;-89
2022/01/28 11:13:34;;;;;;;13.68;5.05;;;;;;;5.55;99.42;100692.03;3520179;82;99180;-86
2022/01/28 11:18:35;;;;;;;8.60;2.00;;;;;;;5.59;99.45;100695.69;3519594;82;98729;-86
2022/01/28 11:23:56;;;;;;;18.07;5.20;;;;;;;5.64;99.03;100703.67;3531789;82;32285;-85
2022/01/28 11:29:02;;;;;;;12.25;3.17;;;;;;;5.73;99.27;100716.09;3487509;83;98311;-86
2022/01/28 11:34:01;;;;;;;18.23;6.85;;;;;;;5.77;98.82;100721.11;3515902;82;98611;-85
2022/01/28 11:39:08;;;;;;;19.33;5.90;;;;;;;5.81;98.89;100730.82;3511949;82;98687;-85
2022/01/28 11:44:08;;;;;;;17.62;6.65;;;;;;;5.85;98.76;100732.53;3514914;82;98646;-86
2022/01/28 11:49:15;;;;;;;21.93;7.03;;;;;;;5.84;98.37;100735.63;3510052;82;99262;-86
2022/01/28 11:54:24;;;;;;;13.18;3.75;;;;;;;5.77;98.53;100743.52;3517101;82;99009;-88
2022/01/28 11:59:31;;;;;;;18.27;6.33;;;;;;;5.75;98.57;100754.80;3514931;82;98481;-87
2022/01/28 12:04:44;;;;;;;20.90;6.30;;;;;;;5.75;98.16;100749.89;3509151;83;99027;-86
2022/01/28 12:09:50;;;;;;;9.48;3.37;;;;;;;5.80;98.43;100766.91;3504496;82;98494;-85
2022/01/28 12:14:57;;;;;;;16.82;5.35;;;;;;;5.95;98.27;100777.76;3522005;81;98465;-86
2022/01/28 12:20:22;;;;;;;9.97;3.13;;;;;;;6.12;98.51;100783.81;3503317;82;98507;-87
2022/01/28 12:25:43;;;;;;;15.45;3.85;;;;;;;6.25;96.62;100783.27;3510861;82;98540;-85
2022/01/28 12:31:08;;;;;;;13.13;3.52;;;;;;;6.24;95.88;100798.08;3507173;82;99017;-86
2022/01/28 12:36:23;;;;;;;9.68;3.55;;;;;;;6.18;95.92;100796.15;3510420;83;99108;-85
2022/01/28 12:41:25;;;;;;;14.67;3.87;;;;;;;6.18;94.70;100797.52;3494593;83;98610;-85
2022/01/28 12:46:28;;;;;;;12.28;3.35;;;;;;;6.10;94.71;100811.24;3499349;83;98984;-86
2022/01/28 12:51:29;;;;;;;8.15;1.98;;;;;;;6.05;94.42;100817.73;3502860;83;98716;-84
2022/01/28 12:56:38;;;;;;;8.43;2.40;;;;;;;5.95;93.85;100829.66;3499454;83;98604;-86
2022/01/28 13:01:39;;;;;;;7.03;2.02;;;;;;;5.91;94.13;100831.46;3501632;83;98596;-87
2022/01/28 13:06:54;;;;;;;11.67;3.53;;;;;;;5.93;94.03;100840.92;3507724;83;98531;-85
2022/01/28 13:11:49;;;;;;;6.78;1.72;;;;;;;5.89;92.84;100850.13;3504733;83;98196;-86
2022/01/28 13:16:50;;;;;;;5.17;1.70;;;;;;;5.81;92.33;100858.62;3507843;83;98291;-86
2022/01/28 13:21:51;;;;;;;9.77;3.87;;;;;;;5.79;91.92;100876.45;3499721;83;98316;-85
2022/01/28 13:27:05;;;;;;;5.07;1.80;;;;;;;5.74;91.95;100884.27;3541850;82;98921;-87
2022/01/28 13:32:09;;;;;;;4.78;1.82;;;;;;;5.70;91.17;100898.37;3493449;83;98949;-85
2022/01/28 13:37:10;;;;;;;5.85;1.85;;;;;;;5.63;91.49;100911.73;3499936;83;98517;-88
2022/01/28 13:42:13;;;;;;;5.73;1.97;;;;;;;5.59;91.06;100912.19;3428586;83;98572;-85
2022/01/28 13:47:16;;;;;;;7.42;2.17;;;;;;;5.57;91.04;100929.45;3479160;83;35254;-84
2022/01/28 13:52:41;;;;;;;8.95;2.50;;;;;;;5.52;90.38;100930.22;3460927;83;98469;-86
2022/01/28 13:57:30;;;;;;;9.78;2.65;;;;;;;5.46;89.92;100947.34;3452048;83;98445;-87
2022/01/28 14:02:37;;;;;;;9.40;2.20;;;;;;;5.38;89.81;100934.55;3538078;82;98904;-86
2022/01/28 14:07:43;;;;;;;5.80;1.35;;;;;;;5.29;89.48;100943.34;3547365;82;99044;-85
2022/01/28 14:12:47;;;;;;;4.58;1.37;;;;;;;5.23;89.50;100943.88;3460549;83;98835;-86
2022/01/28 14:17:47;;;;;;;5.85;1.57;;;;;;;5.17;89.08;100950.62;3478034;83;35308;-87
2022/01/28 14:22:48;;;;;;;6.23;1.50;;;;;;;5.09;88.72;100971.94;3475369;83;98430;-85
2022/01/28 14:32:52;;;;;;;8.95;2.12;;;;;;;4.88;87.47;100992.31;3459644;83;98464;-86
2022/01/28 14:37:52;;;;;;;7.47;3.00;;;;;;;4.78;87.45;101009.02;3479899;83;98498;-85
2022/01/28 14:42:53;;;;;;;4.63;1.50;;;;;;;4.70;87.95;101024.81;3473657;83;98714;-86
2022/01/28 14:47:54;;;;;;;7.97;2.10;;;;;;;4.60;86.89;101021.64;3478450;83;32470;-86
2022/01/28 14:52:55;;;;;;;8.85;1.60;;;;;;;4.47;85.57;101038.97;3473242;83;98623;-86
2022/01/28 14:57:55;;;;;;;6.20;1.57;;;;;;;4.30;84.35;101053.39;3481678;83;98779;-86
2022/01/28 15:02:59;;;;;;;4.30;1.57;;;;;;;4.14;84.00;101063.15;3474658;83;98523;-88
2022/01/28 15:08:06;;;;;;;4.60;1.10;;;;;;;3.81;83.38;101057.88;3470434;83;98544;-85
2022/01/28 15:13:03;;;;;;;4.28;1.17;;;;;;;3.87;83.82;101097.45;3469782;83;97962;-85
2022/01/28 15:18:04;;;;;;;7.97;1.67;;;;;;;3.75;84.27;101124.48;3484853;83;98545;-85
2022/01/28 15:23:05;;;;;;;6.13;1.70;;;;;;;3.64;84.17;101142.76;3465091;83;98171;-87
2022/01/28 15:28:15;;;;;;;9.03;2.50;;;;;;;3.51;83.72;101150.47;3466605;83;98355;-85
2022/01/28 15:38:34;;;;;;;7.67;2.22;;;;;;;3.31;84.11;101177.65;3462204;83;98924;-85
2022/01/28 15:43:36;;;;;;;8.23;3.47;;;;;;;3.25;84.12;101183.52;3462661;83;98610;-85
2022/01/28 15:48:36;;;;;;;9.10;4.20;;;;;;;3.19;84.49;101191.55;3499153;83;98641;-86
2022/01/28 15:53:37;;;;;;;15.60;5.67;;;;;;;3.11;84.60;101208.05;3509373;83;32542;-86
2022/01/28 15:58:39;;;;;;;17.07;7.30;;;;;;;3.08;84.85;101220.11;3537586;82;98743;-86
2022/01/28 16:03:40;;;;;;;9.97;3.47;;;;;;;3.03;84.95;101227.02;3475928;83;98481;-86
2022/01/28 16:08:42;;;;;;;10.78;4.12;;;;;;;2.98;85.40;101231.22;3504079;83;98609;-86
2022/01/28 16:18:47;;;;;;;9.80;3.92;;;;;;;2.86;85.33;101245.37;3502666;83;99190;-85
2022/01/28 16:23:48;;;;;;;17.70;6.37;;;;;;;2.83;85.59;101254.12;3503145;83;32252;-85
2022/01/28 16:28:49;;;;;;;16.10;6.60;;;;;;;2.78;85.46;101271.11;3500268;83;98368;-85
2022/01/28 16:33:50;;;;;;;13.87;5.00;;;;;;;2.71;85.73;101281.56;3510312;83;98546;-85
2022/01/28 16:38:53;;;;;;;22.40;7.08;;;;;;;2.65;85.59;101281.42;3506115;83;98723;-85
2022/01/28 16:44:07;;;;;;;18.73;5.60;;;;;;;2.57;85.65;101276.14;3499988;83;98732;-85
2022/01/28 16:49:05;;;;;;;19.48;7.60;;;;;;;2.51;85.85;101290.95;3494938;83;98841;-85
2022/01/28 16:54:08;;;;;;;18.23;7.10;;;;;;;2.44;85.84;101295.17;3505686;83;99060;-85
2022/01/28 16:59:09;;;;;;;11.97;5.10;;;;;;;2.36;85.42;101304.03;3495296;83;98359;-85
2022/01/28 17:04:10;;;;;;;14.07;4.40;;;;;;;2.28;85.77;101310.97;3498752;83;98997;-85
2022/01/28 17:09:11;;;;;;;10.88;3.85;;;;;;;2.23;86.23;101321.92;3503462;83;99021;-85
2022/01/28 17:14:11;;;;;;;9.63;3.10;;;;;;;2.19;86.05;101329.05;3499390;83;98742;-85
2022/01/28 17:19:12;;;;;;;10.32;3.22;;;;;;;2.18;86.34;101332.09;3498023;83;98497;-85
2022/01/28 17:24:13;;;;;;;9.30;2.10;;;;;;;2.17;86.10;101342.67;3545440;82;98658;-85
2022/01/28 17:29:14;;;;;;;5.30;1.97;;;;;;;2.16;85.71;101361.44;3501608;83;98546;-85
2022/01/28 17:34:14;;;;;;;7.17;2.10;;;;;;;2.11;85.71;101359.63;3493314;83;98420;-85
2022/01/28 17:39:15;;;;;;;7.17;2.30;;;;;;;2.08;85.33;101382.50;3491683;83;98504;-85
2022/01/28 17:44:16;;;;;;;7.70;2.77;;;;;;;2.02;85.52;101393.19;3518923;82;98927;-85
2022/01/28 17:49:17;;;;;;;7.47;2.17;;;;;;;1.95;85.54;101393.56;3508870;82;98952;-85
2022/01/28 17:54:18;;;;;;;7.47;1.93;;;;;;;1.90;85.65;101399.61;3517371;82;98475;-85
2022/01/28 17:59:19;;;;;;;7.13;2.20;;;;;;;1.83;85.76;101401.36;3509978;82;98162;-85
2022/01/28 18:04:20;;;;;;;11.27;3.30;;;;;;;1.78;86.42;101406.05;3515961;82;98368;-85
2022/01/28 18:09:21;;;;;;;14.87;5.70;;;;;;;1.70;86.45;101408.88;3425142;84;98433;-86
2022/01/28 18:14:28;;;;;;;20.33;10.30;;;;;;;1.62;86.76;101418.23;3513204;82;98793;-85
2022/01/28 18:19:29;;;;;;;15.65;5.65;;;;;;;1.55;86.80;101415.08;3537289;82;98999;-85
2022/01/28 18:24:30;;;;;;;15.83;7.60;;;;;;;1.44;87.09;101427.99;3561081;81;99121;-85
2022/01/28 18:29:31;;;;;;;20.08;8.93;;;;;;;1.35;87.08;101431.09;3533587;82;98731;-85
2022/01/28 18:34:33;;;;;;;11.87;5.20;;;;;;;1.29;87.87;101438.22;3547805;81;98974;-85
2022/01/28 18:39:34;;;;;;;14.53;6.20;;;;;;;1.21;87.97;101436.95;3540410;82;98711;-86
2022/01/28 18:44:42;;;;;;;13.00;5.10;;;;;;;1.13;88.41;101451.70;3559292;81;98728;-85
2022/01/28 18:49:41;;;;;;;13.28;5.78;;;;;;;1.05;88.89;101443.66;3502498;83;98724;-85
2022/01/28 18:54:42;;;;;;;16.62;7.37;;;;;;;0.97;89.09;101448.91;3502980;83;98745;-85
2022/01/28 18:59:43;;;;;;;24.60;11.33;;;;;;;0.88;88.97;101457.44;3502659;83;98282;-85
2022/01/28 19:04:49;;;;;;;14.73;7.10;;;;;;;0.78;89.25;101467.81;3506903;83;98711;-85
2022/01/28 19:09:47;;;;;;;13.68;4.45;;;;;;;0.71;89.71;101481.46;3500710;83;98828;-85
2022/01/28 19:14:50;;;;;;;9.67;3.57;;;;;;;0.64;89.89;101489.91;3509825;83;99112;-85
2022/01/28 19:19:53;;;;;;;14.55;4.83;;;;;;;0.58;90.41;101500.54;3497663;83;98119;-85
2022/01/28 19:24:54;;;;;;;13.32;3.90;;;;;;;0.53;90.38;101507.88;3503571;83;99101;-85
2022/01/28 19:29:58;;;;;;;14.77;5.30;;;;;;;0.48;91.05;101518.76;3498397;83;98394;-84
2022/01/28 19:34:59;;;;;;;14.28;4.55;;;;;;;0.42;90.87;101521.25;3499876;83;98426;-85
2022/01/28 19:40:01;;;;;;;11.63;4.05;;;;;;;0.37;91.28;101526.17;3504115;82;98721;-85
2022/01/28 19:45:03;;;;;;;12.93;4.40;;;;;;;0.31;91.01;101530.55;3510840;83;98848;-85
2022/01/28 19:50:07;;;;;;;15.67;4.87;;;;;;;0.29;91.54;101540.86;3504375;83;99083;-85
2022/01/28 19:55:09;;;;;;;10.33;4.13;;;;;;;0.23;91.65;101538.72;3513643;82;99012;-85
2022/01/28 20:00:13;;;;;;;15.37;7.47;;;;;;;0.18;91.75;101540.10;3449387;84;99234;-85
2022/01/28 20:05:16;;;;;;;17.90;7.63;;;;;;;0.15;91.91;101556.09;3518397;82;27517;-85
2022/01/28 20:10:17;;;;;;;21.23;9.43;;;;;;;0.09;91.83;101560.75;3497828;83;98499;-85
2022/01/28 20:15:18;;;;;;;16.83;8.00;;;;;;;0.05;91.77;101568.34;3511969;83;98739;-85
2022/01/28 20:20:19;;;;;;;21.30;12.07;;;;;;;-0.01;91.88;101568.92;3502517;82;98713;-85
2022/01/28 20:25:24;;;;;;;24.20;12.33;;;;;;;-0.05;92.42;101567.06;3513739;82;99037;-85
2022/01/28 20:30:29;;;;;;;26.17;11.30;;;;;;;-0.11;91.95;101577.62;3503628;83;99166;-85
2022/01/28 20:35:31;;;;;;;26.55;12.95;;;;;;;-0.15;91.99;101580.64;3516862;82;29544;-85
2022/01/28 20:40:34;;;;;;;32.63;14.68;;;;;;;-0.20;92.53;101579.31;3510062;82;99321;-85
2022/01/28 20:45:35;;;;;;;25.13;10.70;;;;;;;-0.23;92.58;101584.47;3511080;82;99309;-85
2022/01/28 20:50:36;;;;;;;29.43;11.23;;;;;;;-0.31;92.29;101585.30;3514923;82;98963;-85
2022/01/28 20:55:37;;;;;;;23.37;8.73;;;;;;;-0.34;92.39;101589.66;3505281;83;99060;-85
2022/01/28 21:00:39;;;;;;;18.33;6.20;;;;;;;-0.39;92.37;101597.80;3496925;83;98754;-85
2022/01/28 21:05:40;;;;;;;15.20;6.20;;;;;;;-0.42;92.83;101594.27;3508383;83;26052;-85
2022/01/28 21:10:41;;;;;;;21.27;6.20;;;;;;;-0.46;92.83;101591.31;3506873;83;98751;-85
2022/01/28 21:15:45;;;;;;;26.40;7.30;;;;;;;-0.51;92.80;101600.00;3503679;83;98642;-84
2022/01/28 21:20:47;;;;;;;17.35;6.22;;;;;;;-0.54;93.07;101611.35;3502213;83;99353;-85
2022/01/28 21:25:50;;;;;;;14.00;5.30;;;;;;;-0.57;93.47;101607.30;3505885;83;98909;-85
2022/01/28 21:30:52;;;;;;;13.03;3.92;;;;;;;-0.58;93.45;101607.04;3496814;83;98886;-85
2022/01/28 21:35:53;;;;;;;10.67;3.80;;;;;;;-0.61;93.45;101604.88;3510318;83;29058;-85
2022/01/28 21:40:56;;;;;;;17.70;5.47;;;;;;;-0.63;93.53;101611.64;3493867;82;99274;-85
2022/01/28 21:45:58;;;;;;;18.40;4.77;;;;;;;-0.65;93.82;101613.81;3470157;83;98906;-85
2022/01/28 21:50:59;;;;;;;15.47;5.03;;;;;;;-0.65;94.32;101608.41;3500035;83;99015;-85
2022/01/28 21:56:00;;;;;;;19.70;6.57;;;;;;;-0.65;94.03;101607.05;3505278;83;99449;-85
2022/01/28 22:01:00;;;;;;;16.55;5.00;;;;;;;-0.67;94.67;101614.08;3494259;83;99584;-85
2022/01/28 22:06:03;;;;;;;15.97;4.83;;;;;;;-0.69;94.58;101612.20;3503300;83;25763;-85
2022/01/28 22:11:05;;;;;;;19.07;5.83;;;;;;;-0.71;94.66;101607.59;3507534;83;98939;-85
2022/01/28 22:16:07;;;;;;;21.87;6.85;;;;;;;-0.71;94.64;101601.39;3493260;83;98946;-85
2022/01/28 22:21:08;;;;;;;20.83;6.87;;;;;;;-0.73;94.54;101595.47;3494393;83;99115;-85
2022/01/28 22:26:09;;;;;;;17.37;5.93;;;;;;;-0.73;94.73;101597.61;3456467;84;99157;-85
2022/01/28 22:31:11;;;;;;;14.40;5.37;;;;;;;-0.75;94.75;101582.75;3503845;83;99176;-85
2022/01/28 22:36:12;;;;;;;15.10;5.67;;;;;;;-0.78;94.66;101582.75;3481640;83;99163;-85
2022/01/28 22:41:13;;;;;;;25.40;8.17;;;;;;;-0.80;94.48;101582.76;3493002;83;98644;-85
2022/01/28 22:46:14;;;;;;;16.80;5.67;;;;;;;-0.80;94.78;101568.72;3418526;83;98996;-85
2022/01/28 22:51:16;;;;;;;14.77;5.03;;;;;;;-0.81;94.70;101575.73;3461565;83;98956;-85
2022/01/28 22:56:17;;;;;;;14.13;4.80;;;;;;;-0.82;94.98;101574.12;3424656;83;99477;-85
2022/01/28 23:01:17;;;;;;;13.90;5.47;;;;;;;-0.85;95.03;101566.02;3453837;83;98964;-85
2022/01/28 23:06:21;;;;;;;17.30;6.63;;;;;;;-0.87;95.02;101572.25;3440495;83;99338;-85
2022/01/28 23:11:22;;;;;;;16.48;5.15;;;;;;;-0.89;95.02;101569.55;3430207;84;98906;-85
2022/01/28 23:16:23;;;;;;;17.87;6.62;;;;;;;-0.90;95.21;101563.86;3431345;84;98833;-85
2022/01/28 23:21:24;;;;;;;12.57;4.80;;;;;;;-0.90;95.20;101561.16;3455178;83;99210;-85
2022/01/28 23:26:25;;;;;;;16.40;5.70;;;;;;;-0.91;94.57;101552.78;3455513;83;99068;-85
2022/01/28 23:31:25;;;;;;;16.43;5.13;;;;;;;-0.93;95.03;101545.51;3446943;83;99094;-85
2022/01/28 23:36:26;;;;;;;19.53;6.03;;;;;;;-0.94;94.85;101544.69;3467582;83;99061;-85
2022/01/28 23:41:27;;;;;;;14.03;4.63;;;;;;;-0.96;94.59;101545.52;3482397;83;98843;-85
2022/01/28 23:46:28;;;;;;;14.27;4.80;;;;;;;-0.96;95.41;101536.58;3497962;83;98950;-85
2022/01/28 23:51:29;;;;;;;18.93;5.50;;;;;;;-0.99;95.20;101529.05;3501381;83;99282;-85
2022/01/28 23:56:30;;;;;;;16.07;5.33;;;;;;;-0.99;95.26;101516.89;3508147;83;99098;-86
